Time;durP1;ratioP1;P1;durP2;ratioP2;P2;SDS_P1;SDS_P2;PMS_P1;PMS_P2;Temp;Humidity;BMP_temperature;BMP_pressure;BME280_temperature;BME280_humidity;BME280_pressure;Samples;Min_cycle;Max_cycle;Signal;HPM_P1;HPM_P2
2023/08/22 00:00:17;;;;;;;1.02;0.40;;;17.70;99.90;;;;;;5068541;28;20055;-85
2023/08/22 00:02:44;;;;;;;0.77;0.40;;;17.60;99.90;;;;;;5034034;28;20083;-85
2023/08/22 00:05:11;;;;;;;0.45;0.40;;;17.60;99.90;;;;;;5067899;28;20059;-85
2023/08/22 00:07:39;;;;;;;0.82;0.50;;;17.60;99.90;;;;;;5077260;28;20098;-86
2023/08/22 00:10:07;;;;;;;0.30;0.30;;;17.60;99.90;;;;;;5090377;28;20040;-84
2023/08/22 00:12:34;;;;;;;0.47;0.30;;;17.60;99.90;;;;;;5065297;28;20048;-84
2023/08/22 00:15:01;;;;;;;0.30;0.30;;;17.50;99.90;;;;;;5066998;28;20056;-85
2023/08/22 00:17:27;;;;;;;0.50;0.40;;;17.50;99.90;;;;;;5066311;28;20060;-82
2023/08/22 00:19:54;;;;;;;0.57;0.30;;;17.50;99.90;;;;;;5068047;28;20065;-84
2023/08/22 00:22:21;;;;;;;0.93;0.40;;;17.50;99.90;;;;;;5067237;28;20041;-84
2023/08/22 00:24:48;;;;;;;0.38;0.38;;;17.40;99.90;;;;;;5046638;28;20109;-84
2023/08/22 00:27:15;;;;;;;0.30;0.30;;;17.40;99.90;;;;;;5062442;28;20060;-84
2023/08/22 00:29:42;;;;;;;0.30;0.30;;;17.40;99.90;;;;;;5062926;28;20549;-84
2023/08/22 00:32:09;;;;;;;0.65;0.40;;;17.30;99.90;;;;;;5064158;28;20561;-84
2023/08/22 00:34:36;;;;;;;0.30;0.30;;;17.30;99.90;;;;;;5066124;28;20044;-84
2023/08/22 00:37:02;;;;;;;0.40;0.35;;;17.20;1.00;;;;;;5065077;28;20502;-83
2023/08/22 00:39:29;;;;;;;0.30;0.30;;;17.20;1.00;;;;;;5065861;28;20114;-84
2023/08/22 00:41:56;;;;;;;0.68;0.35;;;17.20;1.00;;;;;;5059448;28;20131;-85
2023/08/22 00:44:22;;;;;;;0.43;0.30;;;17.10;1.00;;;;;;5064941;28;20551;-83
2023/08/22 00:46:49;;;;;;;0.95;0.40;;;17.10;1.00;;;;;;5066433;28;20109;-84
2023/08/22 00:49:16;;;;;;;1.38;0.60;;;17.10;8.90;;;;;;5065394;28;20066;-83
2023/08/22 00:51:43;;;;;;;0.50;0.30;;;17.10;36.90;;;;;;5067035;28;20243;-84
2023/08/22 00:54:10;;;;;;;0.43;0.43;;;17.10;55.10;;;;;;5065518;28;20048;-84
2023/08/22 00:56:37;;;;;;;0.85;0.30;;;17.00;99.90;;;;;;5041794;28;20041;-84
2023/08/22 00:59:04;;;;;;;0.55;0.50;;;17.00;99.90;;;;;;5078928;28;20045;-84
2023/08/22 01:01:31;;;;;;;0.40;0.40;;;17.00;99.90;;;;;;5079440;28;20189;-84
2023/08/22 01:03:58;;;;;;;0.82;0.38;;;17.00;99.90;;;;;;5046084;28;20041;-84
2023/08/22 01:06:43;;;;;;;0.30;0.30;;;17.00;99.90;;;;;;5063696;28;20052;-83
2023/08/22 01:09:40;;;;;;;0.60;0.30;;;16.90;99.90;;;;;;5065085;28;20080;-83
2023/08/22 01:12:17;;;;;;;0.82;0.32;;;16.90;99.90;;;;;;4997729;28;20104;-84
2023/08/22 01:14:49;;;;;;;0.35;0.35;;;16.80;99.90;;;;;;5075122;28;20430;-83
2023/08/22 01:17:16;;;;;;;0.40;0.30;;;16.80;99.90;;;;;;5060598;28;20078;-83
2023/08/22 01:19:43;;;;;;;0.30;0.30;;;16.80;99.90;;;;;;5066102;28;20118;-84
2023/08/22 01:22:10;;;;;;;0.28;0.28;;;16.80;99.90;;;;;;5048961;28;20056;-84
2023/08/22 01:24:37;;;;;;;0.30;0.30;;;16.80;99.90;;;;;;5049609;28;20091;-83
2023/08/22 01:27:04;;;;;;;0.57;0.30;;;16.70;99.90;;;;;;5065237;28;20154;-85
2023/08/22 01:29:35;;;;;;;0.38;0.30;;;16.70;99.90;;;;;;5065427;28;20453;-82
2023/08/22 01:32:27;;;;;;;0.50;0.50;;;16.70;99.90;;;;;;5063557;28;20535;-83
2023/08/22 01:34:56;;;;;;;0.28;0.25;;;16.70;99.90;;;;;;5062957;28;20044;-81
2023/08/22 01:37:23;;;;;;;0.38;0.38;;;16.70;99.90;;;;;;5048052;28;20090;-82
2023/08/22 01:39:53;;;;;;;0.98;0.50;;;16.70;99.90;;;;;;5067863;28;20102;-84
2023/08/22 01:42:19;;;;;;;1.00;0.45;;;16.60;1.00;;;;;;5065517;28;20080;-82
2023/08/22 01:44:46;;;;;;;1.15;0.80;;;16.60;1.00;;;;;;5069670;28;20124;-83
2023/08/22 01:47:13;;;;;;;0.63;0.55;;;16.60;1.00;;;;;;5068023;28;20040;-83
2023/08/22 01:49:39;;;;;;;0.63;0.50;;;16.60;1.00;;;;;;5068338;28;20118;-82
2023/08/22 01:52:06;;;;;;;0.60;0.55;;;16.50;1.00;;;;;;5066625;28;20126;-84
2023/08/22 01:54:36;;;;;;;0.70;0.57;;;16.50;1.00;;;;;;5067839;28;20117;-84
2023/08/22 01:57:03;;;;;;;0.40;0.38;;;16.40;1.00;;;;;;5065537;28;20119;-83
2023/08/22 01:59:30;;;;;;;0.52;0.50;;;16.50;1.00;;;;;;5068434;28;20102;-83
2023/08/22 02:01:56;;;;;;;0.57;0.45;;;16.40;1.00;;;;;;5064355;28;20048;-83
2023/08/22 02:04:23;;;;;;;0.65;0.60;;;16.40;1.00;;;;;;5067870;28;20052;-83
2023/08/22 02:06:50;;;;;;;0.35;0.35;;;16.40;1.00;;;;;;5065253;28;20093;-83
2023/08/22 02:09:18;;;;;;;0.40;0.40;;;16.40;1.00;;;;;;5067157;28;20048;-83
2023/08/22 02:11:45;;;;;;;0.50;0.40;;;16.40;1.00;;;;;;5066639;28;20044;-83
2023/08/22 02:14:11;;;;;;;0.50;0.50;;;16.40;1.00;;;;;;5067895;28;20137;-83
2023/08/22 02:16:38;;;;;;;0.43;0.43;;;16.40;1.00;;;;;;5069479;28;20080;-83
2023/08/22 02:19:05;;;;;;;0.50;0.50;;;16.40;1.00;;;;;;5064617;28;20531;-83
2023/08/22 02:21:33;;;;;;;1.08;0.50;;;16.40;1.00;;;;;;5068384;28;20044;-83
2023/08/22 02:23:59;;;;;;;1.55;0.60;;;16.30;1.00;;;;;;5069103;28;20048;-83
2023/08/22 02:26:26;;;;;;;0.40;0.40;;;16.30;1.00;;;;;;5065335;28;20055;-81
2023/08/22 02:28:53;;;;;;;0.63;0.47;;;16.40;1.00;;;;;;5050247;28;20619;-83
2023/08/22 02:31:21;;;;;;;0.60;0.60;;;16.40;1.00;;;;;;5066604;28;20110;-82
2023/08/22 02:33:48;;;;;;;0.50;0.50;;;16.30;1.00;;;;;;5066304;28;20454;-82
2023/08/22 02:36:14;;;;;;;0.90;0.43;;;16.40;1.00;;;;;;5065716;28;20062;-81
2023/08/22 02:38:41;;;;;;;1.35;0.50;;;16.30;1.00;;;;;;5067261;28;20052;-83
2023/08/22 02:41:08;;;;;;;0.40;0.40;;;16.30;1.00;;;;;;5065168;28;20102;-81
2023/08/22 02:43:35;;;;;;;0.40;0.40;;;16.30;1.00;;;;;;5066906;28;20425;-82
2023/08/22 02:46:02;;;;;;;0.57;0.55;;;16.30;5.00;;;;;;5066157;28;20105;-83
2023/08/22 02:48:29;;;;;;;0.82;0.60;;;16.30;4.00;;;;;;5066673;28;20052;-83
2023/08/22 02:50:56;;;;;;;0.50;0.50;;;16.30;22.00;;;;;;5065912;28;20080;-82
2023/08/22 02:53:23;;;;;;;0.60;0.60;;;16.30;17.50;;;;;;5064548;28;20041;-83
2023/08/22 02:55:49;;;;;;;0.82;0.60;;;16.30;32.20;;;;;;5064651;28;20083;-83
2023/08/22 02:58:16;;;;;;;0.70;0.63;;;16.30;39.00;;;;;;5063826;28;20606;-82
2023/08/22 03:00:46;;;;;;;1.30;0.57;;;16.20;48.20;;;;;;5075815;28;20095;-82
2023/08/22 03:03:13;;;;;;;0.50;0.50;;;16.20;55.60;;;;;;5091707;28;20052;-82
2023/08/22 03:05:40;;;;;;;0.60;0.55;;;16.20;55.30;;;;;;5066285;28;20600;-82
2023/08/22 03:08:07;;;;;;;0.52;0.52;;;16.20;46.30;;;;;;5064725;28;20094;-83
2023/08/22 03:10:34;;;;;;;1.17;0.80;;;16.20;49.20;;;;;;5066699;28;20128;-83
2023/08/22 03:13:01;;;;;;;0.70;0.70;;;16.20;63.30;;;;;;5063469;28;20044;-82
2023/08/22 03:15:28;;;;;;;0.82;0.60;;;16.20;61.20;;;;;;5066080;28;20048;-83
2023/08/22 03:17:54;;;;;;;0.88;0.88;;;16.20;79.00;;;;;;5064575;28;20052;-83
2023/08/22 03:20:21;;;;;;;0.63;0.63;;;16.20;71.00;;;;;;5065963;28;20181;-83
2023/08/22 03:22:48;;;;;;;0.60;0.60;;;16.20;74.90;;;;;;5065269;28;20045;-83
2023/08/22 03:25:15;;;;;;;1.00;0.65;;;16.20;75.30;;;;;;5065903;28;20057;-82
2023/08/22 03:27:41;;;;;;;0.70;0.70;;;16.20;72.90;;;;;;5062849;28;20041;-83
2023/08/22 03:30:09;;;;;;;0.82;0.75;;;16.20;72.80;;;;;;5065879;28;20040;-83
2023/08/22 03:32:36;;;;;;;1.27;0.80;;;16.20;65.80;;;;;;5097413;28;20044;-81
2023/08/22 03:35:03;;;;;;;1.15;0.77;;;16.20;69.90;;;;;;5048443;28;20499;-82
2023/08/22 03:37:30;;;;;;;0.85;0.63;;;16.20;63.70;;;;;;5064500;28;20123;-83
2023/08/22 03:39:57;;;;;;;1.08;0.63;;;16.30;60.40;;;;;;5065049;28;20048;-83
2023/08/22 03:42:24;;;;;;;0.60;0.60;;;16.30;59.60;;;;;;5048846;28;20541;-83
2023/08/22 03:44:51;;;;;;;0.98;0.88;;;16.30;46.70;;;;;;5048544;28;20520;-83
2023/08/22 03:47:18;;;;;;;1.40;0.77;;;16.30;53.40;;;;;;5064699;28;20059;-84
2023/08/22 03:49:45;;;;;;;0.70;0.70;;;16.30;49.30;;;;;;5064715;28;20041;-83
2023/08/22 03:52:12;;;;;;;1.58;0.85;;;16.30;49.40;;;;;;5064303;28;20045;-83
2023/08/22 03:54:39;;;;;;;0.93;0.70;;;16.30;55.30;;;;;;5065834;28;20097;-83
2023/08/22 03:57:05;;;;;;;1.10;0.93;;;16.30;58.90;;;;;;5063952;28;20109;-83
2023/08/22 03:59:32;;;;;;;0.73;0.70;;;16.30;73.50;;;;;;5065580;28;20129;-83
2023/08/22 04:01:59;;;;;;;1.00;0.88;;;16.30;79.30;;;;;;5065628;28;20044;-83
2023/08/22 04:04:26;;;;;;;1.00;0.90;;;16.30;82.80;;;;;;5047690;28;20454;-83
2023/08/22 04:06:53;;;;;;;0.85;0.70;;;16.30;92.70;;;;;;5066554;28;20045;-83
2023/08/22 04:09:19;;;;;;;0.95;0.77;;;16.30;99.90;;;;;;5067004;28;20063;-83
2023/08/22 04:11:46;;;;;;;1.00;0.90;;;16.30;99.90;;;;;;5041536;28;20072;-83
2023/08/22 04:14:13;;;;;;;1.33;0.95;;;16.30;99.50;;;;;;5068883;28;20198;-84
2023/08/22 04:16:39;;;;;;;0.90;0.73;;;16.30;99.90;;;;;;5068358;28;20056;-83
2023/08/22 04:19:06;;;;;;;1.30;1.08;;;16.40;99.90;;;;;;5040256;28;20449;-82
2023/08/22 04:21:33;;;;;;;1.02;0.95;;;16.40;97.60;;;;;;5068609;28;20118;-83
2023/08/22 04:24:00;;;;;;;1.67;1.13;;;16.40;96.00;;;;;;5070070;28;20094;-84
2023/08/22 04:26:27;;;;;;;1.38;1.10;;;16.40;97.70;;;;;;5057929;28;20845;-83
2023/08/22 04:28:54;;;;;;;0.85;0.85;;;16.40;98.50;;;;;;5067590;28;20710;-84
2023/08/22 04:31:20;;;;;;;1.58;1.10;;;16.40;95.50;;;;;;5069678;28;20048;-84
2023/08/22 04:33:47;;;;;;;1.38;1.13;;;16.40;99.90;;;;;;5065440;28;20495;-82
2023/08/22 04:36:14;;;;;;;1.00;0.80;;;16.40;99.90;;;;;;5066420;28;20052;-84
2023/08/22 04:38:41;;;;;;;1.35;1.17;;;16.40;99.90;;;;;;5070121;28;20062;-84
2023/08/22 04:41:07;;;;;;;0.70;0.68;;;16.40;99.90;;;;;;5058978;28;20113;-82
2023/08/22 04:43:34;;;;;;;0.88;0.80;;;16.40;99.90;;;;;;5068648;28;20049;-84
2023/08/22 04:46:04;;;;;;;0.77;0.77;;;16.40;99.90;;;;;;5065975;28;20155;-84
2023/08/22 04:48:31;;;;;;;0.93;0.80;;;16.40;99.90;;;;;;5064218;28;20055;-84
2023/08/22 04:50:57;;;;;;;1.00;0.75;;;16.40;99.90;;;;;;5064948;28;20171;-83
2023/08/22 04:53:24;;;;;;;0.77;0.75;;;16.40;99.90;;;;;;5065358;28;20494;-83
2023/08/22 04:55:51;;;;;;;0.70;0.70;;;16.50;99.90;;;;;;5048348;28;20118;-84
2023/08/22 04:58:18;;;;;;;0.90;0.85;;;16.50;99.90;;;;;;5065028;28;20071;-84
2023/08/22 05:00:44;;;;;;;1.13;0.70;;;16.50;95.50;;;;;;5065335;28;20056;-83
2023/08/22 05:03:11;;;;;;;0.88;0.85;;;16.50;97.00;;;;;;5063015;28;20076;-85
2023/08/22 05:05:38;;;;;;;1.23;0.77;;;16.50;99.50;;;;;;5062907;28;20513;-84
2023/08/22 05:08:05;;;;;;;0.75;0.60;;;16.50;99.90;;;;;;5061287;28;20535;-84
2023/08/22 05:10:32;;;;;;;0.93;0.70;;;16.50;99.90;;;;;;5059748;28;20056;-82
2023/08/22 05:12:59;;;;;;;1.00;0.70;;;16.50;99.90;;;;;;5051875;28;20538;-82
2023/08/22 05:15:25;;;;;;;1.08;0.80;;;16.50;99.90;;;;;;5058091;28;20074;-82
2023/08/22 05:17:52;;;;;;;0.85;0.68;;;16.50;99.90;;;;;;5056607;28;20045;-83
2023/08/22 05:20:20;;;;;;;0.77;0.70;;;16.60;99.90;;;;;;5057301;28;20468;-83
2023/08/22 05:22:47;;;;;;;1.20;0.80;;;16.60;99.90;;;;;;5052437;28;20045;-83
2023/08/22 05:25:13;;;;;;;0.73;0.63;;;16.60;99.90;;;;;;5055417;28;20099;-83
2023/08/22 05:27:40;;;;;;;0.82;0.70;;;16.70;99.90;;;;;;5054328;28;20049;-84
2023/08/22 05:30:08;;;;;;;1.30;0.88;;;16.70;99.90;;;;;;5060207;28;20053;-81
2023/08/22 05:32:35;;;;;;;1.20;0.60;;;16.70;99.90;;;;;;5061274;28;20472;-83
2023/08/22 05:35:02;;;;;;;0.57;0.57;;;16.70;99.90;;;;;;5058852;28;20469;-83
2023/08/22 05:37:29;;;;;;;1.15;0.95;;;16.80;99.90;;;;;;5072543;28;20443;-82
2023/08/22 05:39:56;;;;;;;1.08;0.68;;;16.80;99.90;;;;;;5057690;28;20424;-82
2023/08/22 05:42:23;;;;;;;1.05;0.60;;;16.80;99.90;;;;;;5058921;28;20432;-83
2023/08/22 05:44:50;;;;;;;0.93;0.80;;;16.80;99.90;;;;;;5056077;28;20056;-83
2023/08/22 05:47:17;;;;;;;0.70;0.60;;;16.90;99.90;;;;;;5064401;28;20094;-83
2023/08/22 05:49:44;;;;;;;1.15;0.80;;;16.90;99.90;;;;;;5064448;28;20040;-83
2023/08/22 05:52:10;;;;;;;0.95;0.85;;;16.90;90.90;;;;;;5061540;28;20048;-83
2023/08/22 05:54:37;;;;;;;0.90;0.70;;;17.00;99.90;;;;;;5066883;28;20101;-87
2023/08/22 05:57:04;;;;;;;1.05;0.85;;;16.90;94.90;;;;;;5058952;28;20358;-80
2023/08/22 05:59:31;;;;;;;0.70;0.70;;;17.00;98.40;;;;;;5062420;28;20044;-81
2023/08/22 06:01:57;;;;;;;0.73;0.70;;;17.00;88.50;;;;;;5051217;28;20052;-79
2023/08/22 06:04:25;;;;;;;1.02;0.70;;;17.10;87.80;;;;;;5060960;28;20053;-80
2023/08/22 06:06:52;;;;;;;0.70;0.55;;;17.10;56.20;;;;;;5040365;28;20487;-81
2023/08/22 06:09:19;;;;;;;1.73;0.80;;;17.20;47.00;;;;;;5061295;28;20059;-79
2023/08/22 06:11:46;;;;;;;0.82;0.77;;;17.20;56.60;;;;;;5062459;28;20529;-80
2023/08/22 06:14:12;;;;;;;1.05;0.80;;;17.30;29.70;;;;;;5061407;28;20075;-79
2023/08/22 06:16:39;;;;;;;0.93;0.82;;;17.30;22.30;;;;;;5058287;28;20541;-81
2023/08/22 06:19:06;;;;;;;1.23;0.88;;;17.40;19.00;;;;;;5051095;28;20063;-79
2023/08/22 06:21:33;;;;;;;0.63;0.60;;;17.40;11.60;;;;;;5056500;28;20126;-79
2023/08/22 06:24:00;;;;;;;0.70;0.70;;;17.50;17.30;;;;;;5057279;28;20048;-81
2023/08/22 06:26:27;;;;;;;1.17;0.70;;;17.50;1.00;;;;;;5040518;28;20071;-81
2023/08/22 06:28:53;;;;;;;1.08;0.80;;;17.60;1.00;;;;;;5059280;28;20053;-79
2023/08/22 06:31:20;;;;;;;0.80;0.70;;;17.70;1.00;;;;;;5062532;28;20090;-80
2023/08/22 06:33:47;;;;;;;0.70;0.70;;;17.80;1.00;;;;;;5059082;28;20658;-80
2023/08/22 06:36:14;;;;;;;0.85;0.70;;;17.80;1.00;;;;;;5060450;28;20055;-81
2023/08/22 06:38:40;;;;;;;0.80;0.80;;;17.90;1.00;;;;;;5062609;28;20098;-80
2023/08/22 06:41:07;;;;;;;0.70;0.60;;;17.90;1.00;;;;;;5053645;28;20075;-81
2023/08/22 06:43:34;;;;;;;1.80;1.00;;;17.90;1.00;;;;;;5062175;28;20072;-80
2023/08/22 06:46:01;;;;;;;1.00;0.80;;;17.90;1.00;;;;;;5062570;28;20052;-80
2023/08/22 06:48:28;;;;;;;0.93;0.70;;;18.00;1.00;;;;;;5056228;28;20047;-82
2023/08/22 06:51:08;;;;;;;0.80;0.70;;;18.10;1.00;;;;;;5068206;28;20136;-82
2023/08/22 06:53:35;;;;;;;0.77;0.68;;;18.20;1.00;;;;;;5064566;28;20678;-81
2023/08/22 06:56:02;;;;;;;0.75;0.70;;;18.30;1.00;;;;;;5061364;28;20052;-82
2023/08/22 06:58:28;;;;;;;0.75;0.70;;;18.40;99.90;;;;;;5060677;28;20040;-82
2023/08/22 07:00:55;;;;;;;0.57;0.50;;;18.40;99.90;;;;;;5059783;28;20045;-80
2023/08/22 07:03:22;;;;;;;1.20;0.90;;;18.50;99.90;;;;;;5061195;28;20084;-81
2023/08/22 07:05:52;;;;;;;0.70;0.60;;;18.50;99.90;;;;;;5059932;28;20597;-81
2023/08/22 07:08:20;;;;;;;0.57;0.50;;;18.60;99.90;;;;;;5061695;28;20068;-81
2023/08/22 07:10:46;;;;;;;0.55;0.50;;;18.60;99.90;;;;;;5061545;28;20059;-80
2023/08/22 07:13:14;;;;;;;0.57;0.47;;;18.70;99.90;;;;;;5060405;28;20121;-81
2023/08/22 07:15:41;;;;;;;0.70;0.60;;;18.80;99.90;;;;;;5062542;28;20052;-81
2023/08/22 07:18:07;;;;;;;0.63;0.60;;;18.80;99.90;;;;;;5061901;28;20067;-81
2023/08/22 07:20:34;;;;;;;0.70;0.40;;;18.80;99.90;;;;;;5062305;28;20053;-80
2023/08/22 07:23:01;;;;;;;0.60;0.60;;;18.90;76.60;;;;;;5059336;28;20534;-80
2023/08/22 07:25:28;;;;;;;0.98;0.60;;;19.00;52.40;;;;;;5063747;28;20102;-80
2023/08/22 07:27:55;;;;;;;1.17;0.50;;;19.10;1.00;;;;;;5060344;28;20070;-80
2023/08/22 07:30:22;;;;;;;0.32;0.32;;;19.10;1.00;;;;;;5062427;28;20048;-81
2023/08/22 07:32:49;;;;;;;0.57;0.50;;;19.20;1.00;;;;;;5061559;28;20055;-80
2023/08/22 07:35:16;;;;;;;1.30;0.70;;;19.20;99.90;;;;;;5061512;28;20162;-81
2023/08/22 07:37:43;;;;;;;0.45;0.45;;;19.30;99.90;;;;;;5059534;28;20052;-81
2023/08/22 07:40:10;;;;;;;0.70;0.63;;;19.40;99.90;;;;;;5064096;28;20040;-81
2023/08/22 07:42:37;;;;;;;0.95;0.70;;;19.40;99.90;;;;;;5044907;28;20049;-80
2023/08/22 07:45:04;;;;;;;1.20;0.82;;;19.50;99.90;;;;;;5065258;28;20110;-80
2023/08/22 07:47:31;;;;;;;0.73;0.55;;;19.50;99.90;;;;;;5049490;28;20175;-80
2023/08/22 07:49:58;;;;;;;0.88;0.68;;;19.60;99.90;;;;;;5049384;28;20048;-80
2023/08/22 07:52:25;;;;;;;1.08;0.73;;;19.60;99.90;;;;;;5066794;28;20576;-80
2023/08/22 07:54:51;;;;;;;0.80;0.50;;;19.60;22.00;;;;;;5066785;28;20048;-81
2023/08/22 07:57:18;;;;;;;1.00;0.60;;;19.70;1.00;;;;;;5064477;28;20048;-80
2023/08/22 07:59:45;;;;;;;1.65;1.00;;;19.70;1.00;;;;;;5063558;28;20133;-80
2023/08/22 08:02:12;;;;;;;0.68;0.68;;;19.60;1.00;;;;;;5061670;28;20049;-81
2023/08/22 08:04:39;;;;;;;1.27;0.60;;;19.60;21.20;;;;;;5058730;28;20439;-81
2023/08/22 08:07:06;;;;;;;0.40;0.30;;;19.50;99.90;;;;;;5056178;28;20139;-80
2023/08/22 08:09:33;;;;;;;1.17;0.60;;;19.50;98.10;;;;;;5041037;28;20045;-80
2023/08/22 08:12:03;;;;;;;0.55;0.55;;;19.50;99.90;;;;;;5039155;28;20206;-81
2023/08/22 08:14:30;;;;;;;0.70;0.55;;;19.50;99.90;;;;;;5069922;28;20483;-80
2023/08/22 08:16:57;;;;;;;0.88;0.47;;;19.50;1.00;;;;;;5075291;28;20052;-81
2023/08/22 08:19:24;;;;;;;0.93;0.50;;;19.60;1.00;;;;;;5048356;28;20102;-82
2023/08/22 08:21:53;;;;;;;0.40;0.40;;;19.60;1.00;;;;;;5058481;28;20049;-82
2023/08/22 08:24:20;;;;;;;1.45;0.55;;;19.80;1.00;;;;;;5056335;28;20052;-81
2023/08/22 08:26:47;;;;;;;0.82;0.60;;;19.80;1.00;;;;;;5053889;28;20144;-82
2023/08/22 08:29:14;;;;;;;0.80;0.50;;;19.80;99.90;;;;;;5063253;28;20103;-82
2023/08/22 08:31:40;;;;;;;1.02;0.55;;;19.90;99.90;;;;;;5065282;28;20811;-82
2023/08/22 08:34:07;;;;;;;0.43;0.35;;;19.90;99.90;;;;;;5062801;28;20391;-82
2023/08/22 08:36:34;;;;;;;0.30;0.30;;;20.00;1.00;;;;;;5092336;28;20482;-81
2023/08/22 08:39:01;;;;;;;0.55;0.47;;;20.20;1.00;;;;;;5052910;28;20193;-81
2023/08/22 08:41:29;;;;;;;0.50;0.43;;;20.30;99.90;;;;;;5053686;28;20076;-82
2023/08/22 08:43:56;;;;;;;0.63;0.60;;;20.40;99.90;;;;;;5042660;28;20487;-82
2023/08/22 08:46:25;;;;;;;0.93;0.50;;;20.50;1.00;;;;;;5042613;28;20044;-81
2023/08/22 08:48:52;;;;;;;0.60;0.60;;;20.70;99.90;;;;;;5061904;28;20400;-83
2023/08/22 08:51:19;;;;;;;1.00;0.50;;;20.80;1.00;;;;;;5041176;28;20056;-81
2023/08/22 08:53:46;;;;;;;0.50;0.50;;;20.80;1.00;;;;;;5073078;28;20392;-80
2023/08/22 08:56:14;;;;;;;0.90;0.55;;;20.90;1.00;;;;;;5023518;28;20084;-83
2023/08/22 08:58:41;;;;;;;0.93;0.55;;;21.20;99.90;;;;;;5040120;28;20421;-83
2023/08/22 09:01:08;;;;;;;0.73;0.40;;;21.40;99.90;;;;;;5058127;28;20053;-83
2023/08/22 09:03:34;;;;;;;0.75;0.60;;;21.50;1.00;;;;;;5038079;28;20053;-81
2023/08/22 09:06:01;;;;;;;0.68;0.40;;;21.50;99.90;;;;;;5058683;28;20052;-83
2023/08/22 09:08:28;;;;;;;0.70;0.70;;;21.50;54.10;;;;;;5059275;28;20056;-81
2023/08/22 09:10:55;;;;;;;0.85;0.65;;;21.50;99.90;;;;;;5056703;28;20052;-81
2023/08/22 09:13:29;;;;;;;0.40;0.40;;;21.50;1.00;;;;;;5052875;28;20135;-82
2023/08/22 09:16:16;;;;;;;0.93;0.60;;;21.40;63.10;;;;;;5054874;28;20052;-76
2023/08/22 09:18:43;;;;;;;1.02;0.55;;;21.30;99.90;;;;;;5057714;28;20640;-82
2023/08/22 09:21:10;;;;;;;0.85;0.60;;;21.30;2.80;;;;;;5059318;28;20110;-81
2023/08/22 09:23:39;;;;;;;0.40;0.40;;;21.40;1.00;;;;;;5057847;28;20080;-82
2023/08/22 09:26:05;;;;;;;1.15;0.50;;;21.60;99.90;;;;;;5040364;28;20056;-80
2023/08/22 09:28:40;;;;;;;0.73;0.60;;;21.70;99.90;;;;;;5059303;28;20059;-81
2023/08/22 09:31:07;;;;;;;0.80;0.65;;;21.70;99.90;;;;;;5057484;28;20048;-82
2023/08/22 09:33:44;;;;;;;0.40;0.40;;;21.80;98.00;;;;;;5057581;28;20067;-81
2023/08/22 09:36:11;;;;;;;1.35;0.70;;;21.80;84.70;;;;;;5057151;28;20152;-81
2023/08/22 09:38:54;;;;;;;0.63;0.50;;;21.80;93.30;;;;;;5059798;28;20110;-81
2023/08/22 09:41:25;;;;;;;0.70;0.38;;;21.80;90.30;;;;;;5056680;28;20076;-83
2023/08/22 09:44:01;;;;;;;0.40;0.40;;;21.90;90.20;;;;;;5058091;28;20052;-82
2023/08/22 09:46:28;;;;;;;0.32;0.32;;;22.10;82.80;;;;;;5059689;28;20125;-82
2023/08/22 09:48:56;;;;;;;1.05;0.43;;;22.20;70.30;;;;;;5040769;28;20144;-82
2023/08/22 09:51:23;;;;;;;0.45;0.45;;;22.30;68.50;;;;;;5059255;28;20137;-82
2023/08/22 09:53:50;;;;;;;0.40;0.35;;;22.40;67.50;;;;;;5040701;28;20052;-83
2023/08/22 09:56:19;;;;;;;0.38;0.38;;;22.50;62.40;;;;;;5055659;28;20060;-83
2023/08/22 09:58:46;;;;;;;1.20;0.43;;;22.50;60.80;;;;;;5057573;28;20140;-82
2023/08/22 10:01:16;;;;;;;0.55;0.40;;;22.70;55.50;;;;;;5056962;28;20694;-83
2023/08/22 10:03:43;;;;;;;0.47;0.35;;;22.90;52.80;;;;;;5058296;28;20045;-82
2023/08/22 10:06:11;;;;;;;0.50;0.50;;;23.00;50.10;;;;;;5057798;28;20083;-81
2023/08/22 10:08:43;;;;;;;0.85;0.47;;;23.30;49.00;;;;;;5041660;28;20056;-81
2023/08/22 10:11:10;;;;;;;0.40;0.40;;;23.50;41.00;;;;;;5040262;28;20052;-80
2023/08/22 10:13:37;;;;;;;0.40;0.38;;;23.50;34.40;;;;;;5058486;28;20144;-82
2023/08/22 10:16:04;;;;;;;0.57;0.40;;;23.60;28.80;;;;;;5041214;28;20109;-81
2023/08/22 10:18:31;;;;;;;0.73;0.40;;;23.50;28.00;;;;;;5058277;28;20064;-81
2023/08/22 10:20:58;;;;;;;0.40;0.40;;;23.40;23.70;;;;;;5040919;28;20803;-81
2023/08/22 10:23:52;;;;;;;0.63;0.47;;;23.40;22.50;;;;;;5058028;28;20144;-84
2023/08/22 10:26:19;;;;;;;0.52;0.43;;;23.50;22.20;;;;;;5066998;28;20040;-91
2023/08/22 10:29:12;;;;;;;0.40;0.32;;;23.40;23.10;;;;;;5070262;28;20028;-92
2023/08/22 10:32:00;;;;;;;1.33;0.40;;;23.60;24.00;;;;;;5065639;28;20048;-91
2023/08/22 10:34:38;;;;;;;0.55;0.40;;;23.50;20.30;;;;;;5065433;28;20064;-93
2023/08/22 10:37:13;;;;;;;0.65;0.55;;;23.60;16.40;;;;;;5052793;28;20049;-92
2023/08/22 10:39:45;;;;;;;0.43;0.40;;;23.60;13.70;;;;;;5078213;28;20041;-92
2023/08/22 10:42:19;;;;;;;0.60;0.40;;;23.70;14.00;;;;;;5076431;28;20107;-91
2023/08/22 10:44:56;;;;;;;0.60;0.32;;;24.00;14.40;;;;;;5072158;28;20076;-92
2023/08/22 10:47:27;;;;;;;0.52;0.40;;;24.20;10.90;;;;;;5086437;28;20048;-92
2023/08/22 10:49:55;;;;;;;0.40;0.40;;;24.40;7.70;;;;;;5087199;28;20468;-90
2023/08/22 10:52:41;;;;;;;0.32;0.30;;;24.60;7.60;;;;;;5097504;28;20088;-90
2023/08/22 10:55:11;;;;;;;1.15;0.50;;;24.80;5.30;;;;;;5069198;28;20449;-89
2023/08/22 10:57:40;;;;;;;0.30;0.30;;;25.00;4.90;;;;;;5068967;28;20052;-91
2023/08/22 11:00:14;;;;;;;0.43;0.40;;;25.00;5.10;;;;;;5066059;28;20813;-93
2023/08/22 11:02:42;;;;;;;0.50;0.40;;;25.20;3.40;;;;;;5056661;28;20467;-92
2023/08/22 11:05:11;;;;;;;0.35;0.30;;;25.50;4.30;;;;;;5069753;28;20074;-84
2023/08/22 11:07:41;;;;;;;0.75;0.50;;;25.60;2.80;;;;;;5068370;28;20036;-91
2023/08/22 11:10:11;;;;;;;0.45;0.45;;;25.50;1.00;;;;;;5069761;28;20136;-91
2023/08/22 11:12:38;;;;;;;0.70;0.50;;;25.40;1.00;;;;;;5052951;28;20117;-89
2023/08/22 11:15:06;;;;;;;0.98;0.65;;;25.60;1.00;;;;;;5069917;28;20048;-92
2023/08/22 11:17:32;;;;;;;0.38;0.38;;;25.80;1.10;;;;;;5068051;28;20080;-92
2023/08/22 11:19:59;;;;;;;1.13;0.50;;;26.10;2.90;;;;;;5063100;28;20354;-91
2023/08/22 11:22:26;;;;;;;0.60;0.45;;;25.60;1.00;;;;;;5059770;28;20102;-81
2023/08/22 11:24:53;;;;;;;0.77;0.50;;;25.40;1.00;;;;;;5057024;28;20056;-75
2023/08/22 11:27:19;;;;;;;0.95;0.50;;;25.40;1.00;;;;;;5057830;28;20102;-78
2023/08/22 11:29:49;;;;;;;1.48;0.50;;;25.10;1.00;;;;;;5061220;28;20071;-78
2023/08/22 11:32:26;;;;;;;0.73;0.35;;;24.90;1.00;;;;;;5050035;28;20125;-79
2023/08/22 11:35:01;;;;;;;1.20;0.70;;;25.00;1.00;;;;;;5054000;28;20049;-77
2023/08/22 11:37:29;;;;;;;0.40;0.40;;;24.90;1.00;;;;;;5055701;28;20051;-79
2023/08/22 11:39:57;;;;;;;0.45;0.40;;;25.30;1.00;;;;;;5056102;28;20071;-79
2023/08/22 11:42:24;;;;;;;0.90;0.50;;;25.90;1.00;;;;;;5054441;28;20076;-80
2023/08/22 11:45:03;;;;;;;0.30;0.30;;;26.30;1.00;;;;;;5052535;28;20131;-78
2023/08/22 11:47:49;;;;;;;0.28;0.28;;;26.80;1.00;;;;;;5056452;28;20131;-78
2023/08/22 11:50:29;;;;;;;0.30;0.30;;;27.30;1.00;;;;;;5065149;28;20040;-80
2023/08/22 11:52:57;;;;;;;0.55;0.50;;;27.70;1.00;;;;;;5041883;28;20594;-78
2023/08/22 11:55:26;;;;;;;0.77;0.43;;;27.80;1.00;;;;;;5065804;28;20055;-79
2023/08/22 11:57:54;;;;;;;0.70;0.47;;;27.00;1.00;;;;;;5049718;28;20060;-80
2023/08/22 12:00:21;;;;;;;0.25;0.25;;;26.90;1.00;;;;;;5056763;28;20072;-79
2023/08/22 12:02:52;;;;;;;0.40;0.40;;;26.90;1.00;;;;;;5053751;28;20102;-79
2023/08/22 12:05:38;;;;;;;0.30;0.30;;;26.60;1.00;;;;;;5054733;28;20044;-79
2023/08/22 12:08:11;;;;;;;0.47;0.30;;;26.30;1.00;;;;;;5056857;28;20079;-79
2023/08/22 12:10:50;;;;;;;0.20;0.20;;;26.60;1.00;;;;;;5057603;28;20135;-78
2023/08/22 12:13:18;;;;;;;0.32;0.32;;;26.30;1.00;;;;;;5085004;28;20122;-79
2023/08/22 12:15:45;;;;;;;0.22;0.22;;;26.40;1.00;;;;;;5037984;28;20067;-79
2023/08/22 12:18:12;;;;;;;0.43;0.32;;;26.30;1.00;;;;;;5056243;28;20080;-77
2023/08/22 12:20:40;;;;;;;0.50;0.47;;;26.10;1.00;;;;;;5081797;28;20068;-78
2023/08/22 12:23:11;;;;;;;0.60;0.47;;;26.70;1.00;;;;;;5052409;28;20049;-78
2023/08/22 12:25:40;;;;;;;0.50;0.50;;;26.90;1.00;;;;;;5052242;28;20056;-79
2023/08/22 12:28:08;;;;;;;0.52;0.35;;;27.40;1.00;;;;;;5055797;28;20090;-79
2023/08/22 12:30:35;;;;;;;0.77;0.40;;;27.20;1.00;;;;;;5056760;28;20056;-78
2023/08/22 12:33:03;;;;;;;0.22;0.22;;;26.80;1.00;;;;;;5054974;28;20086;-79
2023/08/22 12:35:32;;;;;;;0.50;0.50;;;26.50;1.00;;;;;;5056447;28;20040;-80
2023/08/22 12:37:59;;;;;;;0.40;0.40;;;27.00;1.00;;;;;;5058780;28;20147;-79
2023/08/22 12:40:26;;;;;;;0.45;0.40;;;27.30;1.00;;;;;;5058488;28;20048;-80
2023/08/22 12:42:52;;;;;;;0.60;0.25;;;28.10;1.00;;;;;;5055323;28;20149;-79
2023/08/22 12:45:20;;;;;;;1.02;0.47;;;27.70;1.00;;;;;;5058700;28;20102;-80
2023/08/22 12:47:48;;;;;;;0.65;0.47;;;27.30;1.00;;;;;;5058824;28;20117;-78
2023/08/22 12:50:15;;;;;;;0.70;0.60;;;27.00;1.00;;;;;;5057042;28;20809;-79
2023/08/22 12:52:42;;;;;;;0.50;0.30;;;27.20;1.00;;;;;;5056419;28;20125;-80
2023/08/22 12:55:09;;;;;;;0.75;0.40;;;26.90;1.00;;;;;;5072297;28;20047;-80